Hauptseite
METAR-TAF:

METAR-TAF

Flughäfen :

Bagdad, Irak

Flughafen Bagdad

Breite: 33-15-45N, Länge: 44-14-04E, Höhe: 35 m

Beobachtung

Neuester Wetterbericht von vor 11 Minuten, um 22:00 UTC
Wind 3 kt aus West
Temperatur 12°C
Luftfeuchtigkeit 88%
Luftdruck 1010 hPa
Sichtweite 10 km oder mehr
keine Wolken unter 1500 m und keine Kumulonimbus oder Gewitterwolken

METAR: ORBI 242200Z 27003KT CAVOK 12/10 Q1010 NOSIG

Zeit: 01:11 (22:11 UTC)

Prognose

Neuester Wetterbericht von vor 6 Stunden und 11 Minuten, um 16:00 UTC
Gültige Prognose vom 24 um 18 UTC bis 25 um 18 UTC
Wind 6 kt aus Nord/Nordwest
Sichtweite: 7000 m
Aufgelockert bewölkt in der Höhe von 3500 ft
Übergehend zu
vom 25 um 02 UTC bis 25 um 04 UTC
Sichtweite: 3000 m
feuchter Dunst
Übergehend zu
vom 25 um 07 UTC bis 25 um 09 UTC
Sichtweite: 7000 m

TAF: ORBI 241600Z 2418/2518 33006KT 7000 SCT035 BECMG 2502/2504 3000 BR BECMG 2507/2509 7000 NSW

Wetterbeobachtungen und Prognosen von mehr als 4000 Flughäfen (METAR und TAF Bericht).

Die verfügbaren Stationen werden durch gelbe und rote Markierungen auf der Karte dargestellt.

Führen Sie die Maus auf sie, um den Namen der Station zu sehen.

Darauf klicken, um die Beobachtung von Wetterbeobachtungen und Prognosen zu sehen.

Um die Karte zu ändern : klicken Sie auf den grünen Tasten mit einem schwarzen Kreuz Zum Vergrößern, auf den grünen Button mit einem Gedankenstrich zu verkleinern, oder auf die grünen Pfeile für benachbarte Karten.


METAR-TAF: